Time;durP1;ratioP1;P1;durP2;ratioP2;P2;SDS_P1;SDS_P2;PMS_P1;PMS_P2;Temp;Humidity;BMP_temperature;BMP_pressure;BME280_temperature;BME280_humidity;BME280_pressure;Samples;Min_cycle;Max_cycle;Signal;HPM_P1;HPM_P2
2022/04/21 00:00:34;;;;;;;10.10;9.15;;;9.70;84.00;;;;;;5135077;27;20252;-67
2022/04/21 00:03:01;;;;;;;11.30;10.20;;;9.70;85.10;;;;;;5135153;27;20597;-68
2022/04/21 00:05:30;;;;;;;10.20;9.30;;;9.80;85.30;;;;;;5135160;27;20220;-68
2022/04/21 00:07:57;;;;;;;10.13;9.23;;;9.90;85.70;;;;;;5135076;27;20201;-67
2022/04/21 00:10:25;;;;;;;10.98;9.90;;;9.90;85.40;;;;;;5135175;27;20558;-68
2022/04/21 00:12:54;;;;;;;10.73;9.73;;;9.90;86.10;;;;;;5134936;27;20225;-68
2022/04/21 00:15:21;;;;;;;11.27;10.25;;;10.00;85.30;;;;;;5134964;27;20603;-67
2022/04/21 00:17:48;;;;;;;11.68;10.50;;;10.00;85.50;;;;;;5134882;27;20204;-68
2022/04/21 00:20:14;;;;;;;11.32;10.25;;;9.90;87.20;;;;;;5135061;27;20209;-67
2022/04/21 00:25:24;;;;;;;11.65;10.57;;;9.80;88.60;;;;;;5125567;27;20217;-68
2022/04/21 00:27:51;;;;;;;11.80;10.60;;;9.80;88.60;;;;;;5134921;27;20201;-68
2022/04/21 00:30:18;;;;;;;11.40;10.30;;;9.80;89.00;;;;;;5134882;27;20211;-67
2022/04/21 00:32:46;;;;;;;11.95;10.88;;;9.80;89.50;;;;;;5134636;27;20240;-67
2022/04/21 00:35:15;;;;;;;11.43;10.32;;;9.80;89.50;;;;;;5134683;27;20197;-68
2022/04/21 00:37:49;;;;;;;11.68;10.52;;;9.90;90.10;;;;;;5134775;27;20207;-68
2022/04/21 00:40:18;;;;;;;12.65;11.40;;;9.80;90.40;;;;;;5134801;27;20209;-68
2022/04/21 00:42:45;;;;;;;12.30;10.85;;;9.80;90.20;;;;;;5134720;27;20231;-67
2022/04/21 00:45:12;;;;;;;11.90;10.70;;;9.80;90.40;;;;;;5134449;27;20312;-68
2022/04/21 00:47:43;;;;;;;13.02;11.68;;;9.80;90.60;;;;;;5134667;28;20210;-67
2022/04/21 00:50:19;;;;;;;12.82;11.50;;;9.70;90.80;;;;;;5134647;28;20558;-68
2022/04/21 00:52:48;;;;;;;12.88;11.57;;;9.80;91.00;;;;;;5134647;27;20307;-68
2022/04/21 00:55:15;;;;;;;12.63;11.38;;;9.70;91.30;;;;;;5134178;28;20199;-68
2022/04/21 00:57:43;;;;;;;13.27;11.98;;;9.70;91.50;;;;;;5134399;28;20685;-68
2022/04/21 01:00:12;;;;;;;12.30;10.90;;;9.60;91.70;;;;;;5137920;27;20203;-67
2022/04/21 01:02:50;;;;;;;11.73;10.70;;;9.60;91.80;;;;;;5138757;27;20276;-67
2022/04/21 01:05:18;;;;;;;12.52;11.35;;;9.50;92.00;;;;;;5138492;27;20220;-67
2022/04/21 01:07:45;;;;;;;12.75;11.48;;;9.40;92.10;;;;;;5138487;27;20666;-68
2022/04/21 01:10:13;;;;;;;11.45;10.25;;;9.40;92.30;;;;;;5138384;27;20681;-68
2022/04/21 01:12:42;;;;;;;12.38;11.07;;;9.30;92.60;;;;;;5138606;27;20585;-67
2022/04/21 01:15:10;;;;;;;13.02;11.65;;;9.30;92.60;;;;;;5138369;27;20236;-67
2022/04/21 01:17:39;;;;;;;12.05;10.85;;;9.20;92.80;;;;;;5138478;27;20204;-67
2022/04/21 01:20:07;;;;;;;12.18;11.00;;;9.10;93.10;;;;;;5138480;27;20204;-67
2022/04/21 01:22:36;;;;;;;12.27;11.05;;;9.10;93.40;;;;;;5138259;27;20732;-67
2022/04/21 01:25:04;;;;;;;13.02;11.82;;;9.10;93.50;;;;;;5138232;27;20578;-67
2022/04/21 01:27:33;;;;;;;13.93;12.15;;;9.10;93.70;;;;;;5138381;27;20235;-67
2022/04/21 01:30:02;;;;;;;12.75;11.45;;;9.00;93.90;;;;;;5138089;27;20208;-67
2022/04/21 01:32:29;;;;;;;12.50;11.20;;;9.00;94.40;;;;;;5138233;27;20252;-67
2022/04/21 01:34:56;;;;;;;12.65;11.40;;;9.00;94.40;;;;;;5138057;27;20192;-68
2022/04/21 01:42:54;;;;;;;13.25;12.00;;;9.00;94.70;;;;;;5137906;27;20246;-67
2022/04/21 01:45:21;;;;;;;13.95;12.70;;;9.00;94.90;;;;;;5137868;27;20223;-68
2022/04/21 01:47:48;;;;;;;13.50;12.20;;;9.00;95.30;;;;;;5137804;27;20207;-67
2022/04/21 01:50:15;;;;;;;13.75;12.20;;;9.00;95.30;;;;;;5138013;27;20201;-68
2022/04/21 01:52:41;;;;;;;14.27;12.77;;;9.00;95.30;;;;;;5137699;27;20659;-68
2022/04/21 01:55:10;;;;;;;13.40;12.05;;;8.90;95.30;;;;;;5137650;27;20202;-68
2022/04/21 01:57:37;;;;;;;13.20;11.90;;;8.80;95.50;;;;;;5138040;27;20200;-67
2022/04/21 02:00:05;;;;;;;13.70;12.40;;;8.70;95.70;;;;;;5138077;27;20291;-67
2022/04/21 02:02:32;;;;;;;12.85;11.60;;;8.70;95.90;;;;;;5136844;27;20235;-67
2022/04/21 02:05:00;;;;;;;13.80;12.40;;;8.70;96.20;;;;;;5137332;27;20670;-67
2022/04/21 02:07:28;;;;;;;12.90;11.70;;;8.70;96.50;;;;;;5137568;27;20209;-67
2022/04/21 02:09:55;;;;;;;13.13;11.73;;;8.60;96.60;;;;;;5136575;27;20200;-67
2022/04/21 02:12:23;;;;;;;12.88;11.60;;;8.60;96.80;;;;;;5137413;27;20228;-67
2022/04/21 02:14:51;;;;;;;14.15;12.75;;;8.60;97.00;;;;;;5137311;27;20292;-67
2022/04/21 02:17:19;;;;;;;13.32;11.93;;;8.60;97.10;;;;;;5137413;27;20578;-67
2022/04/21 02:19:46;;;;;;;13.95;12.52;;;8.60;97.20;;;;;;5137240;27;20228;-67
2022/04/21 02:22:13;;;;;;;14.25;12.85;;;8.60;97.40;;;;;;5137099;27;20224;-67
2022/04/21 02:24:40;;;;;;;15.02;13.45;;;8.50;97.40;;;;;;5137002;27;20204;-67
2022/04/21 02:27:07;;;;;;;14.75;12.68;;;8.50;97.60;;;;;;5137124;27;20216;-67
2022/04/21 02:29:35;;;;;;;14.43;12.60;;;8.40;98.00;;;;;;5136951;27;20239;-67
2022/04/21 02:32:02;;;;;;;14.15;12.85;;;8.40;98.10;;;;;;5137002;27;20251;-67
2022/04/21 02:34:29;;;;;;;14.23;12.77;;;8.30;98.20;;;;;;5136888;27;20201;-67
2022/04/21 02:36:57;;;;;;;15.13;13.52;;;8.30;98.40;;;;;;5137037;27;20200;-67
2022/04/21 02:39:24;;;;;;;15.63;13.45;;;8.20;99.10;;;;;;5136873;27;20566;-67
2022/04/21 02:41:51;;;;;;;16.35;13.45;;;8.20;99.10;;;;;;5136834;27;20197;-67
2022/04/21 02:44:18;;;;;;;14.80;13.40;;;8.20;99.30;;;;;;5136829;27;20287;-67
2022/04/21 02:46:46;;;;;;;17.33;14.50;;;8.20;99.40;;;;;;5136687;27;20708;-68
2022/04/21 02:49:14;;;;;;;16.88;14.40;;;8.10;99.50;;;;;;5136753;27;20624;-67
2022/04/21 02:51:41;;;;;;;15.15;13.60;;;8.10;99.60;;;;;;5136710;27;20207;-67
2022/04/21 02:59:37;;;;;;;16.60;14.68;;;7.90;99.90;;;;;;5136607;27;20204;-67
2022/04/21 03:02:06;;;;;;;17.30;14.95;;;8.00;99.90;;;;;;5136454;27;20302;-67
2022/04/21 03:04:32;;;;;;;16.08;14.20;;;8.00;99.90;;;;;;5136349;27;20227;-67
2022/04/21 03:06:59;;;;;;;16.60;14.80;;;7.90;99.90;;;;;;5136393;27;20225;-67
2022/04/21 03:09:26;;;;;;;16.55;14.85;;;7.90;99.90;;;;;;5136163;27;20246;-67
2022/04/21 03:11:53;;;;;;;16.73;14.85;;;7.90;99.90;;;;;;5136183;27;20718;-67
2022/04/21 03:14:20;;;;;;;18.63;15.32;;;7.90;99.90;;;;;;5136167;27;20201;-67
2022/04/21 03:16:47;;;;;;;16.98;15.27;;;7.90;99.90;;;;;;5136011;27;20746;-67
2022/04/21 03:19:15;;;;;;;16.92;15.13;;;7.80;99.90;;;;;;5136274;27;20207;-67
2022/04/21 03:24:26;;;;;;;15.60;13.90;;;7.80;99.90;;;;;;5135758;27;20180;-67
2022/04/21 03:26:54;;;;;;;18.33;15.43;;;7.80;99.90;;;;;;5136215;27;20220;-67
2022/04/21 03:29:21;;;;;;;15.80;14.10;;;7.80;99.90;;;;;;5135819;27;20261;-67
2022/04/21 03:31:48;;;;;;;17.30;14.40;;;7.80;99.90;;;;;;5135793;27;20287;-67
2022/04/21 03:34:18;;;;;;;17.08;15.27;;;7.70;99.90;;;;;;5135770;27;20196;-67
2022/04/21 03:36:48;;;;;;;17.25;15.25;;;7.70;99.90;;;;;;5135879;27;20565;-67
2022/04/21 03:39:16;;;;;;;17.58;15.73;;;7.60;99.90;;;;;;5135645;27;20205;-67
2022/04/21 03:41:43;;;;;;;17.52;15.63;;;7.50;99.90;;;;;;5135740;27;20204;-67
2022/04/21 03:44:11;;;;;;;19.75;15.88;;;7.50;99.90;;;;;;5135527;27;20291;-68
2022/04/21 03:46:39;;;;;;;18.30;16.42;;;7.50;99.90;;;;;;5135605;27;20220;-67
2022/04/21 03:49:05;;;;;;;18.35;16.45;;;7.50;99.90;;;;;;5135542;27;20212;-67
2022/04/21 03:51:34;;;;;;;18.83;16.92;;;7.50;99.90;;;;;;5135453;27;20200;-67
2022/04/21 03:54:01;;;;;;;17.45;15.60;;;7.50;99.90;;;;;;5135379;27;20200;-67
2022/04/21 03:56:28;;;;;;;20.20;17.70;;;7.60;99.90;;;;;;5135291;27;20719;-68
2022/04/21 03:58:55;;;;;;;18.98;17.08;;;7.70;99.90;;;;;;5135470;27;20207;-67
2022/04/21 04:01:22;;;;;;;19.15;17.13;;;7.70;99.90;;;;;;5135344;27;20291;-67
2022/04/21 04:03:49;;;;;;;18.38;16.35;;;7.80;99.90;;;;;;5134901;27;20225;-67
2022/04/21 04:11:46;;;;;;;20.73;17.20;;;7.70;99.90;;;;;;5135218;27;20199;-67
2022/04/21 04:14:13;;;;;;;20.42;17.58;;;7.70;99.90;;;;;;5135114;27;20200;-67
2022/04/21 04:16:40;;;;;;;18.45;16.40;;;7.70;99.90;;;;;;5135086;27;20196;-67
2022/04/21 04:19:08;;;;;;;18.75;16.75;;;7.60;99.90;;;;;;5135078;27;20288;-67
2022/04/21 04:21:35;;;;;;;18.08;16.10;;;7.60;99.90;;;;;;5134737;27;20250;-67
2022/04/21 04:24:04;;;;;;;18.35;15.77;;;7.60;99.90;;;;;;5134863;27;20204;-67
2022/04/21 04:26:32;;;;;;;21.90;18.00;;;7.60;99.90;;;;;;5134982;27;20235;-67
2022/04/21 04:28:59;;;;;;;18.55;16.65;;;7.50;99.90;;;;;;5134680;27;20308;-67
2022/04/21 04:31:25;;;;;;;19.45;17.20;;;7.50;99.90;;;;;;5135102;27;20204;-67
2022/04/21 04:33:52;;;;;;;20.08;17.60;;;7.40;99.90;;;;;;5134094;27;20220;-67
2022/04/21 04:36:19;;;;;;;19.48;16.20;;;7.40;99.90;;;;;;5134986;27;20287;-67
2022/04/21 04:38:48;;;;;;;19.92;15.65;;;7.50;99.90;;;;;;5134750;27;20295;-67
2022/04/21 04:44:01;;;;;;;18.73;16.70;;;7.60;99.90;;;;;;5134696;27;20280;-67
2022/04/21 04:46:37;;;;;;;20.13;17.98;;;7.50;99.90;;;;;;5134658;27;20224;-67
2022/04/21 04:49:05;;;;;;;19.13;17.17;;;7.50;99.90;;;;;;5134699;28;20209;-67
2022/04/21 04:51:33;;;;;;;19.25;16.63;;;7.50;99.90;;;;;;5134688;28;20196;-67
2022/04/21 04:54:00;;;;;;;20.17;16.73;;;7.50;99.90;;;;;;5134194;28;20200;-68
2022/04/21 04:56:28;;;;;;;19.58;16.90;;;7.60;99.90;;;;;;5134702;28;20193;-67
2022/04/21 04:58:55;;;;;;;24.35;17.67;;;7.60;99.90;;;;;;5134624;28;20593;-67
2022/04/21 05:01:28;;;;;;;20.58;17.70;;;7.60;99.90;;;;;;5134581;28;20201;-67
2022/04/21 05:04:02;;;;;;;21.83;17.90;;;7.60;99.90;;;;;;5134444;28;20224;-67
2022/04/21 05:06:29;;;;;;;21.60;17.95;;;7.60;99.90;;;;;;5134489;28;20262;-67
2022/04/21 05:08:57;;;;;;;23.85;18.52;;;7.60;99.90;;;;;;5134283;28;20287;-67
2022/04/21 05:11:24;;;;;;;20.50;17.30;;;7.70;99.90;;;;;;5134739;28;20212;-68
2022/04/21 05:13:54;;;;;;;21.58;18.45;;;7.70;99.90;;;;;;5134314;28;20248;-67
2022/04/21 05:16:21;;;;;;;22.55;18.13;;;7.80;99.90;;;;;;5134440;28;20201;-67
2022/04/21 05:18:48;;;;;;;21.75;19.27;;;7.80;99.90;;;;;;5134484;28;20201;-67
2022/04/21 05:21:15;;;;;;;24.58;18.55;;;7.80;99.90;;;;;;5134328;28;20578;-67
2022/04/21 05:23:46;;;;;;;20.63;17.83;;;7.90;99.90;;;;;;5134047;28;20227;-68
2022/04/21 05:26:14;;;;;;;20.10;17.40;;;7.90;99.90;;;;;;5134074;28;20213;-67
2022/04/21 05:28:41;;;;;;;21.60;18.65;;;7.90;99.90;;;;;;5134144;28;20201;-68
2022/04/21 05:31:09;;;;;;;19.67;17.58;;;7.90;99.90;;;;;;5134282;28;20243;-67
2022/04/21 05:33:37;;;;;;;21.42;19.13;;;8.00;99.90;;;;;;5133602;28;20220;-67
2022/04/21 05:36:06;;;;;;;21.00;18.58;;;8.00;99.90;;;;;;5134243;28;20204;-67
2022/04/21 05:38:34;;;;;;;22.70;19.25;;;7.90;99.90;;;;;;5134230;28;20205;-67
2022/04/21 05:41:01;;;;;;;23.63;20.90;;;8.00;99.90;;;;;;5134212;28;20558;-67
2022/04/21 05:43:38;;;;;;;23.70;19.35;;;8.00;99.90;;;;;;5133957;27;20223;-68
2022/04/21 05:46:06;;;;;;;21.77;19.17;;;8.00;99.90;;;;;;5136974;27;20253;-67
2022/04/21 05:48:35;;;;;;;24.08;20.02;;;8.20;99.90;;;;;;5138046;27;20636;-67
2022/04/21 05:51:02;;;;;;;22.70;19.30;;;8.30;99.90;;;;;;5137895;27;20617;-68
2022/04/21 05:53:31;;;;;;;22.52;19.10;;;8.30;99.90;;;;;;5137719;27;20217;-67
2022/04/21 05:55:59;;;;;;;23.00;18.75;;;8.40;99.90;;;;;;5137652;27;20215;-67
2022/04/21 05:58:26;;;;;;;23.90;19.55;;;8.30;99.90;;;;;;5137789;27;20242;-67
2022/04/21 06:00:53;;;;;;;24.75;20.00;;;8.20;99.90;;;;;;5137678;27;20579;-67
2022/04/21 06:03:21;;;;;;;24.70;20.58;;;8.10;99.90;;;;;;5137601;27;20227;-67
2022/04/21 06:05:49;;;;;;;23.88;20.75;;;8.10;99.90;;;;;;5137485;27;20207;-67
2022/04/21 06:08:16;;;;;;;26.80;21.08;;;8.10;99.90;;;;;;5137520;27;20698;-67
2022/04/21 06:10:43;;;;;;;23.38;20.80;;;8.00;99.90;;;;;;5137550;27;20197;-67
2022/04/21 06:13:11;;;;;;;23.83;20.25;;;8.00;99.90;;;;;;5137247;27;20220;-68
2022/04/21 06:15:38;;;;;;;25.60;20.83;;;8.00;99.90;;;;;;5137568;27;20208;-67
2022/04/21 06:18:05;;;;;;;24.25;20.42;;;8.00;99.90;;;;;;5137405;27;20291;-67
2022/04/21 06:20:34;;;;;;;24.92;20.20;;;8.00;99.90;;;;;;5137196;27;20201;-68
2022/04/21 06:23:03;;;;;;;26.70;19.92;;;8.00;99.90;;;;;;5136893;27;20788;-68
2022/04/21 06:25:29;;;;;;;24.88;19.95;;;8.00;99.90;;;;;;5137194;27;20236;-68
2022/04/21 06:27:56;;;;;;;28.50;20.63;;;8.10;99.90;;;;;;5136993;27;20682;-67
2022/04/21 06:30:24;;;;;;;28.27;21.73;;;8.20;99.90;;;;;;5136987;27;20295;-67
2022/04/21 06:32:51;;;;;;;27.50;20.52;;;8.30;99.90;;;;;;5137061;27;20217;-67
2022/04/21 06:35:18;;;;;;;27.48;21.67;;;8.30;99.90;;;;;;5136933;27;20243;-67
2022/04/21 06:37:46;;;;;;;22.58;19.55;;;8.30;99.90;;;;;;5137099;27;20208;-67
2022/04/21 06:40:16;;;;;;;26.75;21.20;;;8.40;99.90;;;;;;5136875;27;20273;-68
2022/04/21 06:42:43;;;;;;;23.60;20.85;;;8.40;99.90;;;;;;5136905;27;20252;-67
2022/04/21 06:48:04;;;;;;;25.02;20.00;;;8.60;99.90;;;;;;5136812;27;20250;-67
2022/04/21 06:50:32;;;;;;;25.85;20.08;;;8.90;99.90;;;;;;5136791;27;20235;-68
2022/04/21 06:53:00;;;;;;;26.63;20.55;;;9.00;99.90;;;;;;5136485;27;20733;-67
2022/04/21 06:55:28;;;;;;;24.00;19.67;;;9.20;99.90;;;;;;5136776;27;20201;-67
2022/04/21 06:57:55;;;;;;;21.08;17.85;;;9.20;99.90;;;;;;5136019;27;20205;-67
2022/04/21 07:00:22;;;;;;;23.75;18.35;;;9.20;99.90;;;;;;5136619;27;20207;-67
2022/04/21 07:02:51;;;;;;;21.98;17.33;;;9.30;99.90;;;;;;5136447;27;20564;-68
2022/04/21 07:05:19;;;;;;;22.40;18.90;;;9.40;99.90;;;;;;5136244;27;20197;-67
2022/04/21 07:07:47;;;;;;;22.02;18.35;;;9.50;99.90;;;;;;5136354;27;20220;-67
2022/04/21 07:10:14;;;;;;;23.30;19.08;;;9.60;99.90;;;;;;5136167;27;20240;-67
2022/04/21 07:12:42;;;;;;;21.17;18.65;;;9.70;99.90;;;;;;5135988;27;20229;-67
2022/04/21 07:15:10;;;;;;;24.00;18.65;;;9.80;99.90;;;;;;5136101;27;20571;-67
2022/04/21 07:17:38;;;;;;;23.27;18.70;;;9.80;99.90;;;;;;5136108;27;20197;-67
2022/04/21 07:20:07;;;;;;;21.75;18.25;;;9.80;99.90;;;;;;5136354;27;20568;-68
2022/04/21 07:22:34;;;;;;;20.60;18.30;;;10.00;99.90;;;;;;5136030;27;20303;-68
2022/04/21 07:25:03;;;;;;;20.95;18.60;;;10.10;99.70;;;;;;5135879;27;20205;-68
2022/04/21 07:27:30;;;;;;;20.33;18.08;;;10.10;99.40;;;;;;5135828;27;20227;-68
2022/04/21 07:29:58;;;;;;;22.67;18.67;;;10.20;99.50;;;;;;5135856;27;20300;-67
2022/04/21 07:32:25;;;;;;;23.20;19.50;;;10.30;99.70;;;;;;5135838;27;20705;-67
2022/04/21 07:34:52;;;;;;;18.83;16.83;;;10.30;99.10;;;;;;5135747;27;20226;-67
2022/04/21 07:37:19;;;;;;;21.83;18.38;;;10.30;98.60;;;;;;5135636;27;20727;-67
2022/04/21 07:39:46;;;;;;;20.33;18.15;;;10.40;98.80;;;;;;5135776;27;20295;-67
2022/04/21 07:42:13;;;;;;;20.13;18.02;;;10.40;98.60;;;;;;5135435;27;20288;-68
2022/04/21 07:44:40;;;;;;;20.17;17.38;;;10.40;98.40;;;;;;5135569;27;20200;-67
2022/04/21 07:47:09;;;;;;;20.42;18.33;;;10.40;98.40;;;;;;5135522;27;20221;-67
2022/04/21 07:49:45;;;;;;;20.13;16.88;;;10.50;98.10;;;;;;5135559;27;20200;-68
2022/04/21 07:54:57;;;;;;;18.17;16.38;;;10.80;97.30;;;;;;5135423;27;20196;-68
2022/04/21 07:57:24;;;;;;;22.48;17.33;;;11.00;97.20;;;;;;5135318;27;20685;-68
2022/04/21 07:59:51;;;;;;;19.08;16.83;;;11.00;97.10;;;;;;5135370;27;20207;-67
2022/04/21 08:02:19;;;;;;;18.60;16.60;;;11.20;96.90;;;;;;5135103;27;20225;-68
2022/04/21 08:04:47;;;;;;;20.27;17.00;;;11.40;96.40;;;;;;5134987;27;20209;-67
2022/04/21 08:07:14;;;;;;;19.10;16.88;;;11.50;96.10;;;;;;5135669;27;20225;-67
2022/04/21 08:09:41;;;;;;;19.65;16.75;;;11.60;96.20;;;;;;5134287;27;20207;-67
2022/04/21 08:12:09;;;;;;;18.20;15.65;;;11.70;95.70;;;;;;5135025;27;20220;-68
2022/04/21 08:14:36;;;;;;;17.88;15.98;;;11.90;95.10;;;;;;5134896;27;20205;-68
2022/04/21 08:17:03;;;;;;;19.95;17.00;;;11.90;94.60;;;;;;5135108;27;20235;-68
2022/04/21 08:19:31;;;;;;;17.77;15.93;;;11.90;94.70;;;;;;5134878;27;20243;-68
2022/04/21 08:21:57;;;;;;;19.52;16.77;;;11.90;94.50;;;;;;5134777;27;20221;-68
2022/04/21 08:32:43;;;;;;;19.13;16.30;;;12.20;93.00;;;;;;5134769;27;20219;-68
2022/04/21 08:35:13;;;;;;;18.58;16.70;;;12.30;92.70;;;;;;5134396;27;20205;-68
2022/04/21 08:37:41;;;;;;;18.00;16.10;;;12.30;92.50;;;;;;5134742;27;20204;-68
2022/04/21 08:40:10;;;;;;;17.83;15.35;;;12.10;92.70;;;;;;5134720;27;20273;-68
2022/04/21 08:42:38;;;;;;;17.05;15.25;;;12.10;93.00;;;;;;5134700;27;20225;-68
2022/04/21 08:45:05;;;;;;;16.90;15.13;;;12.30;92.80;;;;;;5134477;27;20205;-68
2022/04/21 08:47:33;;;;;;;16.75;15.10;;;12.70;92.40;;;;;;5134484;27;20233;-68
2022/04/21 08:50:05;;;;;;;18.40;16.60;;;13.00;91.90;;;;;;5134629;27;20562;-68
2022/04/21 08:52:34;;;;;;;18.10;16.20;;;13.30;91.30;;;;;;5134540;28;20225;-68
2022/04/21 08:55:02;;;;;;;18.23;16.35;;;13.40;91.00;;;;;;5134372;28;20201;-68
2022/04/21 08:57:30;;;;;;;18.75;15.43;;;13.70;90.40;;;;;;5134738;28;20201;-68
2022/04/21 08:59:57;;;;;;;15.20;13.77;;;14.40;87.80;;;;;;5134450;28;20199;-68
2022/04/21 09:02:34;;;;;;;16.00;14.52;;;16.20;83.00;;;;;;5134481;28;20228;-68
2022/04/21 09:05:02;;;;;;;16.75;15.20;;;17.60;72.70;;;;;;5134332;28;20204;-68
2022/04/21 09:07:29;;;;;;;16.10;14.50;;;18.50;69.40;;;;;;5134376;28;20584;-68
2022/04/21 09:10:06;;;;;;;15.07;13.77;;;19.60;64.80;;;;;;5134377;28;20720;-68
2022/04/21 09:12:34;;;;;;;15.80;14.40;;;21.00;60.00;;;;;;5134054;28;20462;-68
2022/04/21 09:15:07;;;;;;;14.50;13.30;;;22.20;55.10;;;;;;5134246;28;20442;-68
2022/04/21 09:17:40;;;;;;;14.27;12.97;;;23.70;51.10;;;;;;5134250;28;20958;-69
2022/04/21 09:20:08;;;;;;;14.80;13.60;;;25.10;47.20;;;;;;5135647;27;20453;-69
2022/04/21 09:22:35;;;;;;;15.30;13.90;;;24.70;45.30;;;;;;5138377;27;20464;-69
2022/04/21 09:25:04;;;;;;;15.30;13.90;;;24.10;46.20;;;;;;5138530;27;20530;-69
2022/04/21 09:27:41;;;;;;;15.00;13.70;;;23.50;47.10;;;;;;5138350;27;20834;-69
2022/04/21 09:30:12;;;;;;;15.17;13.87;;;24.10;46.10;;;;;;5138387;27;20541;-69
2022/04/21 09:32:39;;;;;;;14.70;13.50;;;25.00;44.20;;;;;;5138205;27;20466;-69
2022/04/21 09:35:08;;;;;;;15.23;13.73;;;25.00;44.40;;;;;;5138083;27;20446;-69
2022/04/21 09:37:45;;;;;;;14.93;13.63;;;26.10;42.50;;;;;;5138268;27;20820;-69
2022/04/21 09:40:15;;;;;;;15.57;14.17;;;27.10;40.40;;;;;;5138390;27;20446;-66
2022/04/21 09:42:42;;;;;;;14.83;13.53;;;26.60;39.20;;;;;;5138043;27;20873;-69
2022/04/21 09:47:55;;;;;;;12.90;11.90;;;27.80;38.40;;;;;;5137966;27;20469;-69
2022/04/21 09:50:25;;;;;;;13.10;11.90;;;27.20;38.10;;;;;;5137714;27;20438;-69
2022/04/21 09:52:53;;;;;;;12.70;11.70;;;26.50;37.20;;;;;;5137876;27;20457;-69
2022/04/21 09:55:23;;;;;;;12.40;11.40;;;25.50;39.50;;;;;;5137671;27;20438;-69
2022/04/21 09:57:52;;;;;;;12.60;11.60;;;26.10;39.20;;;;;;5138055;27;20460;-69
2022/04/21 10:00:21;;;;;;;11.57;10.60;;;26.70;38.50;;;;;;5137758;27;20842;-69
2022/04/21 10:02:50;;;;;;;11.80;10.90;;;27.10;38.10;;;;;;5137826;27;20836;-69
2022/04/21 10:05:18;;;;;;;12.20;11.30;;;27.00;37.50;;;;;;5137743;27;20447;-69
2022/04/21 10:07:46;;;;;;;12.00;11.10;;;28.10;36.30;;;;;;5137546;27;20473;-69
2022/04/21 10:10:13;;;;;;;11.50;10.60;;;29.10;34.60;;;;;;5137525;27;20800;-69
2022/04/21 10:12:42;;;;;;;12.47;11.53;;;28.60;35.50;;;;;;5137794;27;20468;-69
2022/04/21 10:15:10;;;;;;;11.30;10.50;;;28.90;33.90;;;;;;5137341;27;20436;-69
2022/04/21 10:17:38;;;;;;;11.53;10.50;;;27.70;34.90;;;;;;5137231;27;20440;-69
2022/04/21 10:20:08;;;;;;;12.27;11.37;;;26.50;37.50;;;;;;5137368;27;20441;-69
2022/04/21 10:22:35;;;;;;;12.70;11.60;;;26.40;37.20;;;;;;5137109;27;20552;-69
2022/04/21 10:25:05;;;;;;;12.00;11.00;;;26.00;37.60;;;;;;5137103;27;20441;-69
2022/04/21 10:27:45;;;;;;;12.10;11.10;;;25.20;39.60;;;;;;5137097;27;20447;-69
2022/04/21 10:30:23;;;;;;;10.90;9.83;;;24.60;39.00;;;;;;5136926;27;20481;-69
2022/04/21 10:32:52;;;;;;;9.90;9.00;;;24.10;41.80;;;;;;5136210;27;20493;-69
2022/04/21 10:35:49;;;;;;;10.20;9.40;;;24.90;40.70;;;;;;5136812;27;20453;-69
2022/04/21 10:38:25;;;;;;;10.90;10.10;;;25.80;39.70;;;;;;5137104;27;20465;-69
2022/04/21 10:41:03;;;;;;;11.27;10.37;;;26.40;38.60;;;;;;5136967;27;20487;-69
2022/04/21 10:44:03;;;;;;;11.57;10.70;;;26.80;37.80;;;;;;5136790;27;20817;-69
2022/04/21 10:46:30;;;;;;;11.70;10.60;;;26.50;37.10;;;;;;5137487;27;20451;-69
2022/04/21 10:48:59;;;;;;;12.27;11.37;;;24.60;39.20;;;;;;5136904;27;20504;-69
2022/04/21 10:58:47;;;;;;;8.67;8.00;;;24.50;42.80;;;;;;5136962;27;20431;-69
2022/04/21 11:01:18;;;;;;;9.33;8.53;;;24.60;41.50;;;;;;5136295;27;20939;-69
2022/04/21 11:03:46;;;;;;;10.30;9.50;;;22.90;42.70;;;;;;5136390;27;20458;-68
2022/04/21 11:06:14;;;;;;;10.50;9.60;;;21.50;44.60;;;;;;5136443;27;20449;-68
2022/04/21 11:08:42;;;;;;;9.40;8.70;;;20.10;47.00;;;;;;5136140;27;20482;-68
2022/04/21 11:11:09;;;;;;;9.30;8.60;;;20.30;48.30;;;;;;5136281;27;20444;-69
2022/04/21 11:13:43;;;;;;;8.10;7.50;;;20.70;48.20;;;;;;5136161;27;20545;-69
2022/04/21 11:16:10;;;;;;;8.37;7.77;;;21.90;47.60;;;;;;5136317;27;20438;-69
2022/04/21 11:18:39;;;;;;;8.80;8.10;;;22.30;45.90;;;;;;5136296;27;20466;-69
2022/04/21 11:21:23;;;;;;;8.10;7.50;;;22.20;45.60;;;;;;5136181;27;20445;-68
2022/04/21 11:24:03;;;;;;;8.50;7.70;;;21.40;46.20;;;;;;5135956;27;20472;-68
2022/04/21 11:26:30;;;;;;;7.03;6.43;;;20.60;47.70;;;;;;5136067;27;20441;-69
2022/04/21 11:29:03;;;;;;;7.53;6.93;;;20.50;48.70;;;;;;5135636;27;20480;-69
2022/04/21 11:31:30;;;;;;;7.33;6.80;;;20.50;48.50;;;;;;5135983;27;20441;-68
2022/04/21 11:34:02;;;;;;;8.03;7.40;;;20.40;48.40;;;;;;5135352;27;20987;-68
2022/04/21 11:36:36;;;;;;;6.50;6.00;;;20.00;49.50;;;;;;5135869;27;20446;-68
2022/04/21 11:39:07;;;;;;;6.20;5.70;;;19.70;50.00;;;;;;5135807;27;20477;-68
2022/04/21 11:41:34;;;;;;;6.50;5.90;;;19.70;50.50;;;;;;5136028;27;20450;-68
2022/04/21 11:44:01;;;;;;;5.63;5.20;;;19.70;51.20;;;;;;5135484;27;20450;-68
2022/04/21 11:46:28;;;;;;;6.57;6.05;;;19.80;51.90;;;;;;5135662;27;20436;-68
2022/04/21 11:49:00;;;;;;;6.20;5.70;;;19.50;51.10;;;;;;5135261;27;20781;-68
2022/04/21 11:51:28;;;;;;;5.38;4.97;;;19.10;51.30;;;;;;5135556;27;20205;-68
2022/04/21 11:53:55;;;;;;;5.35;4.95;;;18.50;52.00;;;;;;5135040;27;20231;-69
2022/04/21 11:56:22;;;;;;;4.53;4.22;;;18.40;52.70;;;;;;5135364;27;20205;-68
2022/04/21 11:58:49;;;;;;;4.30;4.00;;;18.50;53.00;;;;;;5135468;27;20200;-68
2022/04/21 12:06:49;;;;;;;4.40;3.17;;;18.30;52.60;;;;;;5135412;27;20693;-68
2022/04/21 12:09:16;;;;;;;3.92;3.35;;;18.70;52.10;;;;;;5135108;27;20689;-68
2022/04/21 12:11:47;;;;;;;3.40;3.20;;;18.60;52.90;;;;;;5135066;27;20291;-69
2022/04/21 12:14:14;;;;;;;2.90;2.70;;;18.80;52.40;;;;;;5134801;27;20254;-68
2022/04/21 12:16:47;;;;;;;3.10;2.90;;;18.90;51.90;;;;;;5135168;27;20203;-68
2022/04/21 12:19:17;;;;;;;3.30;3.00;;;19.10;50.70;;;;;;5135098;27;20439;-68
2022/04/21 12:21:45;;;;;;;2.30;2.20;;;19.10;50.40;;;;;;5134956;27;20232;-68
2022/04/21 12:24:18;;;;;;;2.27;2.07;;;19.30;49.80;;;;;;5134803;27;20482;-68
2022/04/21 12:26:52;;;;;;;2.20;2.10;;;19.30;49.40;;;;;;5134726;27;20439;-68
2022/04/21 12:29:20;;;;;;;2.33;2.23;;;19.20;49.80;;;;;;5134766;27;20309;-68
2022/04/21 12:31:52;;;;;;;2.20;2.10;;;19.20;49.10;;;;;;5134660;27;21015;-69
2022/04/21 12:34:24;;;;;;;2.10;2.00;;;19.20;49.60;;;;;;5134765;27;20447;-69
2022/04/21 12:36:52;;;;;;;2.60;2.05;;;19.20;49.30;;;;;;5134788;27;20438;-68
2022/04/21 12:39:20;;;;;;;2.00;1.90;;;19.20;49.70;;;;;;5134867;27;20194;-68
2022/04/21 12:41:48;;;;;;;2.70;2.50;;;19.30;49.60;;;;;;5134656;27;20440;-69
2022/04/21 12:44:15;;;;;;;2.90;2.70;;;19.30;49.40;;;;;;5134899;27;20438;-68
2022/04/21 12:46:42;;;;;;;2.80;2.60;;;19.10;49.80;;;;;;5134712;27;20822;-68
2022/04/21 12:49:09;;;;;;;2.22;2.13;;;19.00;49.40;;;;;;5134494;27;20217;-68
2022/04/21 12:51:36;;;;;;;2.30;2.20;;;18.90;49.80;;;;;;5134650;27;20212;-68
2022/04/21 12:54:03;;;;;;;2.03;1.92;;;18.80;50.30;;;;;;5133973;27;20292;-68
2022/04/21 12:56:36;;;;;;;2.80;2.60;;;19.00;50.90;;;;;;5134440;28;20249;-68
2022/04/21 12:59:04;;;;;;;3.10;2.90;;;19.40;50.80;;;;;;5134611;28;20445;-68
2022/04/21 13:01:31;;;;;;;2.80;2.60;;;19.60;49.60;;;;;;5134774;28;20442;-69
2022/04/21 13:04:00;;;;;;;3.95;2.60;;;19.30;50.20;;;;;;5134305;27;20228;-68
2022/04/21 13:06:28;;;;;;;2.92;2.70;;;19.00;50.50;;;;;;5134526;28;20204;-68
2022/04/21 13:08:55;;;;;;;2.60;2.40;;;18.80;50.80;;;;;;5134319;28;20259;-68
2022/04/21 13:11:22;;;;;;;2.30;2.20;;;18.70;51.00;;;;;;5134666;28;20203;-68
2022/04/21 13:13:51;;;;;;;2.78;2.58;;;18.80;50.90;;;;;;5134216;28;20226;-68
2022/04/21 13:16:18;;;;;;;2.90;2.58;;;18.80;50.60;;;;;;5134339;28;20205;-68
2022/04/21 13:18:46;;;;;;;2.60;2.40;;;18.80;50.60;;;;;;5134433;28;20202;-68
2022/04/21 13:23:57;;;;;;;3.60;3.30;;;18.90;51.30;;;;;;5134295;28;20236;-68
2022/04/21 13:26:28;;;;;;;4.10;3.80;;;19.20;51.50;;;;;;5134262;28;20637;-68
2022/04/21 13:28:57;;;;;;;3.80;3.50;;;19.10;51.80;;;;;;5134257;28;20221;-68
2022/04/21 13:34:05;;;;;;;7.25;4.28;;;18.60;53.20;;;;;;5110795;27;20593;-68
2022/04/21 13:36:32;;;;;;;4.10;3.80;;;18.50;53.80;;;;;;5134167;28;20197;-68
2022/04/21 13:38:59;;;;;;;4.50;4.05;;;18.60;53.30;;;;;;5134135;28;20203;-69
2022/04/21 13:41:26;;;;;;;4.18;3.78;;;18.80;53.20;;;;;;5133933;28;20211;-68